createdAt,value
2018-08-22T00:02:14.427Z,21.30
2018-08-22T00:04:43.658Z,21.30
2018-08-22T00:07:12.707Z,21.40
2018-08-22T00:09:41.792Z,21.40
2018-08-22T00:12:11.869Z,21.40
2018-08-22T00:14:41.623Z,21.40
2018-08-22T00:17:10.690Z,21.40
2018-08-22T00:19:39.736Z,21.40
2018-08-22T00:22:08.816Z,21.40
2018-08-22T00:24:37.831Z,21.50
2018-08-22T00:27:06.860Z,21.50
2018-08-22T00:29:35.914Z,21.50
2018-08-22T00:32:05.245Z,21.40
2018-08-22T00:34:34.403Z,21.40
2018-08-22T00:37:03.448Z,21.40
2018-08-22T00:39:33.149Z,21.40
2018-08-22T00:42:03.292Z,21.40
2018-08-22T00:44:33.516Z,21.30
2018-08-22T00:47:02.520Z,21.40
2018-08-22T00:49:31.749Z,21.40
2018-08-22T00:52:00.761Z,21.40
2018-08-22T00:54:29.811Z,21.40
2018-08-22T00:56:58.827Z,21.40
2018-08-22T00:59:27.845Z,21.30
2018-08-22T01:01:56.857Z,21.30
2018-08-22T01:04:25.955Z,21.30
2018-08-22T01:06:54.993Z,21.40
2018-08-22T01:09:23.971Z,21.40
2018-08-22T01:11:53.087Z,21.30
2018-08-22T01:14:22.368Z,21.40
2018-08-22T01:16:51.407Z,21.40
2018-08-22T01:19:20.439Z,21.40
2018-08-22T01:21:49.520Z,21.40
2018-08-22T01:24:18.581Z,21.40
2018-08-22T01:26:47.664Z,21.40
2018-08-22T01:29:16.667Z,21.30
2018-08-22T01:31:46.068Z,21.30
2018-08-22T01:34:15.354Z,21.30
2018-08-22T01:36:44.472Z,21.20
2018-08-22T01:39:13.563Z,21.20
2018-08-22T01:41:42.713Z,21.20
2018-08-22T01:44:11.958Z,21.20
2018-08-22T01:46:41.299Z,21.20
2018-08-22T01:49:10.499Z,21.10
2018-08-22T01:51:39.483Z,21.10
2018-08-22T01:54:08.588Z,21.00
2018-08-22T01:56:37.640Z,21.00
2018-08-22T01:59:06.821Z,21.00
2018-08-22T02:01:35.896Z,20.90
2018-08-22T02:04:04.968Z,20.90
2018-08-22T02:06:34.165Z,20.90
2018-08-22T02:09:03.269Z,20.90
2018-08-22T02:11:33.328Z,20.80
2018-08-22T02:14:02.396Z,20.80
2018-08-22T02:16:31.581Z,20.80
2018-08-22T02:19:00.638Z,20.80
2018-08-22T02:21:29.654Z,20.80
2018-08-22T02:23:58.839Z,20.80
2018-08-22T02:26:27.875Z,20.80
2018-08-22T02:28:56.950Z,20.80
2018-08-22T02:31:26.118Z,20.80
2018-08-22T02:33:55.248Z,20.80
2018-08-22T02:36:24.384Z,20.80
2018-08-22T02:38:53.482Z,20.80
2018-08-22T02:41:29.395Z,20.90
2018-08-22T02:43:58.539Z,20.80
2018-08-22T02:46:28.033Z,20.80
2018-08-22T02:48:57.834Z,20.80
2018-08-22T02:51:27.149Z,20.80
2018-08-22T02:53:56.535Z,20.70
2018-08-22T02:56:25.749Z,20.70
2018-08-22T02:58:54.845Z,20.70
2018-08-22T03:01:23.990Z,20.60
2018-08-22T03:03:53.084Z,20.50
2018-08-22T03:06:22.171Z,20.60
2018-08-22T03:08:51.284Z,20.50
2018-08-22T03:11:20.311Z,20.50
2018-08-22T03:13:49.371Z,20.50
2018-08-22T03:16:18.536Z,20.40
2018-08-22T03:18:47.706Z,20.40
2018-08-22T03:21:16.967Z,20.30
2018-08-22T03:23:46.145Z,20.30
2018-08-22T03:26:15.390Z,20.30
2018-08-22T03:28:45.560Z,20.20
2018-08-22T03:31:14.690Z,20.20
2018-08-22T03:33:43.768Z,20.10
2018-08-22T03:36:12.921Z,20.10
2018-08-22T03:38:42.080Z,20.00
2018-08-22T03:41:11.233Z,20.00
2018-08-22T03:43:40.548Z,20.00
2018-08-22T03:46:09.643Z,20.00
2018-08-22T03:48:38.873Z,19.90
2018-08-22T03:51:08.069Z,19.90
2018-08-22T03:53:37.606Z,19.90
2018-08-22T03:56:07.868Z,19.80
2018-08-22T03:58:37.005Z,19.80
2018-08-22T04:01:06.182Z,19.80
2018-08-22T04:03:35.290Z,19.70
2018-08-22T04:06:04.377Z,19.70
2018-08-22T04:08:33.483Z,19.70
2018-08-22T04:11:02.726Z,19.70
2018-08-22T04:13:31.868Z,19.60
2018-08-22T04:16:01.218Z,19.60
2018-08-22T04:18:31.445Z,19.60
2018-08-22T04:21:00.661Z,19.60
2018-08-22T04:23:29.799Z,19.60
2018-08-22T04:25:58.886Z,19.60
2018-08-22T04:28:27.985Z,19.50
2018-08-22T04:30:57.174Z,19.50
2018-08-22T04:33:26.233Z,19.50
2018-08-22T04:35:55.590Z,19.50
2018-08-22T04:38:25.687Z,19.50
2018-08-22T04:40:54.898Z,19.40
2018-08-22T04:43:24.036Z,19.40
2018-08-22T04:45:53.258Z,19.40
2018-08-22T04:48:22.425Z,19.40
2018-08-22T04:50:51.528Z,19.40
2018-08-22T04:53:20.649Z,19.40
2018-08-22T04:55:50.530Z,19.40
2018-08-22T04:58:19.666Z,19.50
2018-08-22T05:00:49.809Z,19.50
2018-08-22T05:03:18.943Z,19.60
2018-08-22T05:05:48.184Z,19.60
2018-08-22T05:08:17.392Z,19.70
2018-08-22T05:10:46.512Z,19.80
2018-08-22T05:13:16.085Z,19.90
2018-08-22T05:15:46.020Z,20.10
2018-08-22T05:18:15.436Z,20.10
2018-08-22T05:20:44.627Z,20.20
2018-08-22T05:23:13.860Z,20.30
2018-08-22T05:25:43.135Z,20.40
2018-08-22T05:28:12.832Z,20.40
2018-08-22T05:30:42.120Z,20.40
2018-08-22T05:33:11.573Z,20.40
2018-08-22T05:35:41.185Z,20.50
2018-08-22T05:38:11.045Z,20.50
2018-08-22T05:40:40.484Z,20.50
2018-08-22T05:43:09.602Z,20.60
2018-08-22T05:45:38.875Z,20.60
2018-08-22T05:48:07.990Z,20.70
2018-08-22T05:50:37.899Z,20.80
2018-08-22T05:53:07.096Z,20.90
2018-08-22T05:55:36.349Z,21.00
2018-08-22T05:58:05.901Z,21.10
2018-08-22T06:00:35.212Z,21.20
2018-08-22T06:03:04.268Z,21.30
2018-08-22T06:05:33.340Z,21.40
2018-08-22T06:08:02.465Z,21.50
2018-08-22T06:10:31.599Z,21.70
2018-08-22T06:13:00.828Z,21.80
2018-08-22T06:15:29.892Z,21.90
2018-08-22T06:17:59.150Z,22.00
2018-08-22T06:20:28.668Z,22.20
2018-08-22T06:22:57.840Z,22.30
2018-08-22T06:25:27.036Z,22.50
2018-08-22T06:27:56.115Z,22.60
2018-08-22T06:30:25.267Z,22.80
2018-08-22T06:32:54.634Z,23.00
2018-08-22T06:35:23.784Z,23.20
2018-08-22T06:37:52.905Z,23.50
2018-08-22T06:40:23.462Z,23.70
2018-08-22T06:42:52.961Z,23.90
2018-08-22T06:45:22.090Z,24.10
2018-08-22T06:47:51.411Z,24.40
2018-08-22T06:50:21.309Z,24.60
2018-08-22T06:52:50.310Z,24.80
2018-08-22T06:55:19.534Z,25.00
2018-08-22T06:57:48.803Z,25.30
2018-08-22T07:00:17.932Z,25.60
2018-08-22T07:02:47.267Z,25.90
2018-08-22T07:05:16.502Z,26.10
2018-08-22T07:07:45.711Z,26.40
2018-08-22T07:10:15.130Z,26.70
2018-08-22T07:12:44.448Z,27.00
2018-08-22T07:15:13.802Z,27.30
2018-08-22T07:17:44.419Z,27.60
2018-08-22T07:20:14.037Z,27.90
2018-08-22T07:22:43.708Z,28.20
2018-08-22T07:25:13.242Z,28.50
2018-08-22T07:27:42.392Z,28.90
2018-08-22T07:30:11.774Z,29.20
2018-08-22T07:32:41.052Z,29.60
2018-08-22T07:35:11.806Z,29.90
2018-08-22T07:37:41.851Z,30.20
2018-08-22T07:40:11.629Z,30.50
2018-08-22T07:42:41.050Z,30.90
2018-08-22T07:45:10.254Z,31.20
2018-08-22T07:47:39.520Z,31.50
2018-08-22T07:50:10.379Z,31.70
2018-08-22T07:52:52.547Z,31.80
2018-08-22T07:55:23.185Z,32.00
2018-08-22T07:57:52.524Z,32.20
2018-08-22T08:00:21.685Z,32.40
2018-08-22T08:02:51.085Z,32.50
2018-08-22T08:05:20.257Z,32.70
2018-08-22T08:07:49.742Z,33.00
2018-08-22T08:10:24.457Z,33.10
2018-08-22T08:12:54.231Z,33.20
2018-08-22T08:15:23.801Z,33.30
2018-08-22T08:17:53.525Z,33.50
2018-08-22T08:20:23.467Z,33.60
2018-08-22T08:22:52.747Z,33.80
2018-08-22T08:25:22.099Z,34.00
2018-08-22T08:27:51.416Z,34.20
2018-08-22T08:30:20.714Z,34.40
2018-08-22T08:32:49.920Z,34.60
2018-08-22T08:35:19.281Z,34.70
2018-08-22T08:37:48.696Z,34.90
2018-08-22T08:40:18.787Z,35.10
2018-08-22T08:42:48.063Z,35.30
2018-08-22T08:45:17.261Z,35.40
2018-08-22T08:47:46.584Z,35.60
2018-08-22T08:50:16.110Z,35.60
2018-08-22T08:52:45.549Z,35.70
2018-08-22T08:55:14.956Z,35.90
2018-08-22T08:57:44.732Z,36.10
2018-08-22T09:00:14.295Z,36.20
2018-08-22T09:02:45.055Z,36.20
2018-08-22T09:05:14.506Z,36.30
2018-08-22T09:07:44.053Z,36.40
2018-08-22T09:10:13.530Z,36.40
2018-08-22T09:12:42.714Z,36.50
2018-08-22T09:15:12.006Z,36.50
2018-08-22T09:17:41.467Z,36.40
2018-08-22T09:20:11.257Z,36.50
2018-08-22T09:22:40.486Z,36.50
2018-08-22T09:25:09.860Z,36.60
2018-08-22T09:27:39.696Z,36.80
2018-08-22T09:30:08.993Z,36.90
2018-08-22T09:32:38.177Z,36.90
2018-08-22T09:35:07.489Z,36.90
2018-08-22T09:37:36.658Z,37.00
2018-08-22T09:40:06.156Z,37.00
2018-08-22T09:42:35.599Z,36.90
2018-08-22T09:45:05.140Z,36.90
2018-08-22T09:47:34.968Z,36.80
2018-08-22T09:50:04.315Z,36.90
2018-08-22T09:52:33.755Z,37.00
2018-08-22T09:55:04.604Z,37.00
2018-08-22T09:57:33.790Z,37.00
2018-08-22T10:00:03.508Z,37.00
2018-08-22T10:02:32.810Z,37.00
2018-08-22T10:05:02.161Z,37.00
2018-08-22T10:07:31.973Z,37.00
2018-08-22T10:10:01.393Z,36.90
2018-08-22T10:12:30.424Z,36.80
2018-08-22T10:14:59.722Z,36.70
2018-08-22T10:17:29.052Z,36.50
2018-08-22T10:19:58.388Z,36.50
2018-08-22T10:22:27.586Z,36.50
2018-08-22T10:24:56.895Z,36.50
2018-08-22T10:27:26.129Z,36.50
2018-08-22T10:29:55.397Z,36.50
2018-08-22T10:32:24.500Z,36.50
2018-08-22T10:34:53.721Z,36.50
2018-08-22T10:37:22.845Z,36.40
2018-08-22T10:39:52.279Z,36.50
2018-08-22T10:42:21.925Z,36.50
2018-08-22T10:44:51.454Z,36.50
2018-08-22T10:47:20.905Z,36.60
2018-08-22T10:49:50.177Z,36.50
2018-08-22T10:52:19.474Z,36.30
2018-08-22T10:54:48.750Z,36.10
2018-08-22T10:57:18.156Z,35.80
2018-08-22T10:59:47.713Z,35.60
2018-08-22T11:02:18.008Z,35.50
2018-08-22T11:04:47.651Z,35.50
2018-08-22T11:07:17.802Z,35.50
2018-08-22T11:09:47.457Z,35.50
2018-08-22T11:12:18.257Z,35.30
2018-08-22T11:14:47.584Z,35.20
2018-08-22T11:17:16.914Z,35.10
2018-08-22T11:19:46.117Z,35.00
2018-08-22T11:22:32.624Z,34.90
2018-08-22T11:25:18.897Z,34.80
2018-08-22T11:28:05.217Z,34.80
2018-08-22T11:30:51.490Z,34.80
2018-08-22T11:33:37.757Z,34.80
2018-08-22T11:36:05.493Z,34.80
2018-08-22T11:38:34.722Z,34.80
2018-08-22T11:41:04.300Z,34.80
2018-08-22T11:43:33.986Z,34.90
2018-08-22T11:46:03.631Z,34.90
2018-08-22T11:48:32.937Z,35.00
2018-08-22T11:51:02.441Z,35.00
2018-08-22T11:53:32.476Z,35.10
2018-08-22T11:56:01.902Z,35.00
2018-08-22T11:58:31.160Z,35.00
2018-08-22T12:01:00.996Z,35.00
2018-08-22T12:03:30.243Z,35.00
2018-08-22T12:05:59.780Z,35.00
2018-08-22T12:08:29.718Z,35.00
2018-08-22T12:10:59.161Z,35.00
2018-08-22T12:13:28.615Z,35.00
2018-08-22T12:15:58.651Z,35.00
2018-08-22T12:18:27.926Z,35.00
2018-08-22T12:20:57.181Z,35.00
2018-08-22T12:23:26.449Z,34.90
2018-08-22T12:25:55.816Z,34.90
2018-08-22T12:28:25.439Z,34.90
2018-08-22T12:30:54.830Z,34.80
2018-08-22T12:33:24.058Z,34.80
2018-08-22T12:35:53.384Z,34.80
2018-08-22T12:38:23.096Z,34.80
2018-08-22T12:40:52.723Z,34.90
2018-08-22T12:43:22.116Z,34.90
2018-08-22T12:45:51.859Z,34.80
2018-08-22T12:48:21.112Z,34.80
2018-08-22T12:50:50.320Z,34.80
2018-08-22T12:53:19.771Z,34.70
2018-08-22T12:55:49.272Z,34.70
2018-08-22T12:58:18.432Z,34.70
2018-08-22T13:00:47.584Z,34.70
2018-08-22T13:03:17.093Z,34.70
2018-08-22T13:05:46.322Z,34.70
2018-08-22T13:08:16.410Z,34.70
2018-08-22T13:10:45.472Z,34.70
2018-08-22T13:13:14.869Z,34.70
2018-08-22T13:15:44.152Z,34.70
2018-08-22T13:18:13.450Z,34.70
2018-08-22T13:20:42.745Z,34.60
2018-08-22T13:23:12.031Z,34.60
2018-08-22T13:25:41.619Z,34.50
2018-08-22T13:28:11.419Z,34.50
2018-08-22T13:30:41.897Z,34.50
2018-08-22T13:33:11.201Z,34.40
2018-08-22T13:35:40.411Z,34.30
2018-08-22T13:38:09.771Z,34.30
2018-08-22T13:40:41.603Z,34.20
2018-08-22T13:43:11.035Z,34.20
2018-08-22T13:45:40.220Z,34.20
2018-08-22T13:48:09.493Z,34.10
2018-08-22T13:50:39.023Z,34.10
2018-08-22T13:53:08.625Z,34.10
2018-08-22T13:55:37.826Z,34.10
2018-08-22T13:58:08.452Z,34.10
2018-08-22T14:00:37.953Z,34.00
2018-08-22T14:03:07.538Z,33.90
2018-08-22T14:05:36.793Z,33.90
2018-08-22T14:08:05.945Z,33.80
2018-08-22T14:10:35.315Z,33.70
2018-08-22T14:13:04.628Z,33.70
2018-08-22T14:15:34.076Z,33.60
2018-08-22T14:18:03.446Z,33.60
2018-08-22T14:20:32.489Z,33.60
2018-08-22T14:23:01.566Z,33.50
2018-08-22T14:25:30.820Z,33.40
2018-08-22T14:28:00.676Z,33.40
2018-08-22T14:30:30.088Z,33.40
2018-08-22T14:32:59.582Z,33.30
2018-08-22T14:35:28.820Z,33.30
2018-08-22T14:37:58.130Z,33.20
2018-08-22T14:40:27.309Z,33.20
2018-08-22T14:42:56.429Z,33.20
2018-08-22T14:45:25.773Z,33.20
2018-08-22T14:47:54.949Z,33.10
2018-08-22T14:50:24.152Z,33.10
2018-08-22T14:52:53.416Z,33.00
2018-08-22T14:55:22.660Z,33.00
2018-08-22T14:57:51.964Z,32.90
2018-08-22T15:00:21.289Z,32.90
2018-08-22T15:02:50.705Z,32.90
2018-08-22T15:05:19.589Z,32.80
2018-08-22T15:07:49.400Z,32.70
2018-08-22T15:10:19.105Z,32.70
2018-08-22T15:12:49.342Z,32.60
2018-08-22T15:15:18.870Z,32.60
2018-08-22T15:17:48.130Z,32.50
2018-08-22T15:20:17.369Z,32.50
2018-08-22T15:22:46.549Z,32.50
2018-08-22T15:25:15.668Z,32.40
2018-08-22T15:27:45.270Z,32.30
2018-08-22T15:30:15.077Z,32.30
2018-08-22T15:32:44.238Z,32.20
2018-08-22T15:35:13.515Z,32.10
2018-08-22T15:37:42.923Z,32.00
2018-08-22T15:40:13.103Z,32.00
2018-08-22T15:42:42.388Z,31.90
2018-08-22T15:45:12.224Z,31.90
2018-08-22T15:47:41.706Z,31.80
2018-08-22T15:50:10.885Z,31.70
2018-08-22T15:52:40.325Z,31.60
2018-08-22T15:55:13.087Z,31.60
2018-08-22T15:57:59.488Z,31.60
2018-08-22T16:00:50.861Z,31.50
2018-08-22T16:03:20.474Z,31.50
2018-08-22T16:05:50.337Z,31.40
2018-08-22T16:08:22.070Z,31.30
2018-08-22T16:10:51.327Z,31.30
2018-08-22T16:13:25.785Z,31.20
2018-08-22T16:15:56.050Z,31.20
2018-08-22T16:18:25.566Z,31.10
2018-08-22T16:20:57.950Z,31.10
2018-08-22T16:23:30.116Z,31.00
2018-08-22T16:26:00.530Z,31.00
2018-08-22T16:28:49.860Z,30.90
2018-08-22T16:31:19.319Z,30.90
2018-08-22T16:33:48.625Z,30.80
2018-08-22T16:36:23.175Z,30.80
2018-08-22T16:38:52.375Z,30.80
2018-08-22T16:41:21.804Z,30.70
2018-08-22T16:43:51.033Z,30.60
2018-08-22T16:46:20.307Z,30.60
2018-08-22T16:48:53.221Z,30.50
2018-08-22T16:51:22.971Z,30.50
2018-08-22T16:53:59.825Z,30.40
2018-08-22T16:56:30.549Z,30.30
2018-08-22T16:59:05.008Z,30.30
2018-08-22T17:01:34.068Z,30.20
2018-08-22T17:04:03.275Z,30.20
2018-08-22T17:06:32.583Z,30.10
2018-08-22T17:09:01.738Z,30.10
2018-08-22T17:11:30.862Z,30.00
2018-08-22T17:14:00.590Z,30.00
2018-08-22T17:16:29.731Z,30.00
2018-08-22T17:18:58.967Z,29.90
2018-08-22T17:21:28.123Z,29.90
2018-08-22T17:23:57.363Z,29.80
2018-08-22T17:26:26.404Z,29.70
2018-08-22T17:28:57.154Z,29.70
2018-08-22T17:31:27.884Z,29.60
2018-08-22T17:33:58.510Z,29.60
2018-08-22T17:36:27.665Z,29.40
2018-08-22T17:38:58.113Z,29.30
2018-08-22T17:41:29.153Z,29.30
2018-08-22T17:44:08.009Z,29.20
2018-08-22T17:46:42.201Z,29.20
2018-08-22T17:49:11.836Z,29.10
2018-08-22T17:51:58.205Z,29.10
2018-08-22T17:54:27.966Z,29.00
2018-08-22T17:57:13.348Z,28.90
2018-08-22T17:59:43.803Z,28.80
2018-08-22T18:02:13.702Z,28.70
2018-08-22T18:04:56.258Z,28.70
2018-08-22T18:07:26.429Z,28.60
2018-08-22T18:09:56.848Z,28.50
2018-08-22T18:12:28.319Z,28.40
2018-08-22T18:15:00.232Z,28.40
2018-08-22T18:17:29.403Z,28.30
2018-08-22T18:19:58.836Z,28.20
2018-08-22T18:22:32.349Z,28.20
2018-08-22T18:25:01.857Z,28.10
2018-08-22T18:27:31.261Z,28.00
2018-08-22T18:30:00.499Z,28.00
2018-08-22T18:32:29.735Z,27.90
2018-08-22T18:35:10.927Z,27.90
2018-08-22T18:37:41.678Z,27.80
2018-08-22T18:40:18.045Z,27.70
2018-08-22T18:42:49.975Z,27.60
2018-08-22T18:45:20.153Z,27.60
2018-08-22T18:47:49.356Z,27.40
2018-08-22T18:50:19.037Z,27.40
2018-08-22T18:52:51.273Z,27.30
2018-08-22T18:55:26.264Z,27.20
2018-08-22T18:57:56.576Z,27.20
2018-08-22T19:00:25.996Z,27.10
2018-08-22T19:02:56.254Z,27.10
2018-08-22T19:05:30.388Z,27.00
2018-08-22T19:08:07.291Z,26.90
2018-08-22T19:10:37.490Z,26.90
2018-08-22T19:13:11.936Z,26.80
2018-08-22T19:15:42.431Z,26.80
2018-08-22T19:18:12.905Z,26.80
2018-08-22T19:20:42.528Z,26.60
2018-08-22T19:23:11.908Z,26.50
2018-08-22T19:25:42.006Z,26.50
2018-08-22T19:28:11.164Z,26.50
2018-08-22T19:30:40.657Z,26.50
2018-08-22T19:33:13.714Z,26.50
2018-08-22T19:35:43.415Z,26.50
2018-08-22T19:38:17.215Z,26.40
2018-08-22T19:40:46.358Z,26.40
2018-08-22T19:43:15.850Z,26.30
2018-08-22T19:45:45.369Z,26.30
2018-08-22T19:48:14.969Z,26.20
2018-08-22T19:50:44.176Z,26.20
2018-08-22T19:53:13.442Z,26.10
2018-08-22T19:55:42.972Z,26.00
2018-08-22T19:58:14.796Z,26.00
2018-08-22T20:00:44.237Z,26.00
2018-08-22T20:03:19.384Z,25.90
2018-08-22T20:05:54.347Z,25.80
2018-08-22T20:08:28.397Z,25.80
2018-08-22T20:10:59.299Z,25.70
2018-08-22T20:13:46.442Z,25.70
2018-08-22T20:16:16.724Z,25.60
2018-08-22T20:18:50.431Z,25.60
2018-08-22T20:21:25.070Z,25.50
2018-08-22T20:23:55.219Z,25.40
2018-08-22T20:26:25.185Z,25.40
2018-08-22T20:28:55.567Z,25.30
2018-08-22T20:31:24.746Z,25.30
2018-08-22T20:34:14.571Z,25.20
2018-08-22T20:36:46.492Z,25.10
2018-08-22T20:39:16.286Z,25.10
2018-08-22T20:41:45.883Z,25.10
2018-08-22T20:44:21.247Z,25.00
2018-08-22T20:46:50.790Z,25.00
2018-08-22T20:49:20.912Z,24.90
2018-08-22T20:51:50.335Z,24.90
2018-08-22T20:54:23.656Z,24.80
2018-08-22T20:56:58.241Z,24.80
2018-08-22T20:59:27.567Z,24.70
2018-08-22T21:02:01.200Z,24.70
2018-08-22T21:04:30.614Z,24.60
2018-08-22T21:09:35.429Z,24.60
2018-08-22T21:12:05.306Z,24.50
2018-08-22T21:14:34.364Z,24.50
2018-08-22T21:17:04.033Z,24.40
2018-08-22T21:19:33.143Z,24.40
2018-08-22T21:22:02.449Z,24.30
2018-08-22T21:24:31.944Z,24.30
2018-08-22T21:27:01.312Z,24.30
2018-08-22T21:29:31.038Z,24.20
2018-08-22T21:32:02.054Z,24.20
2018-08-22T21:34:31.367Z,24.20
2018-08-22T21:37:01.169Z,24.10
2018-08-22T21:39:30.515Z,24.10
2018-08-22T21:42:00.088Z,24.00
2018-08-22T21:44:29.324Z,24.00
2018-08-22T21:47:04.015Z,23.90
2018-08-22T21:49:33.336Z,23.90
2018-08-22T21:52:02.818Z,23.90
2018-08-22T21:54:32.411Z,23.80
2018-08-22T21:57:01.642Z,23.80
2018-08-22T22:02:14.441Z,23.70
2018-08-22T22:04:45.077Z,23.70
2018-08-22T22:07:16.174Z,23.60
2018-08-22T22:09:47.325Z,23.60
2018-08-22T22:12:22.326Z,23.50
2018-08-22T22:14:52.669Z,23.40
2018-08-22T22:17:23.391Z,23.40
2018-08-22T22:19:54.564Z,23.40
2018-08-22T22:22:26.397Z,23.30
2018-08-22T22:25:03.482Z,23.30
2018-08-22T22:27:34.818Z,23.30
2018-08-22T22:30:07.428Z,23.20
2018-08-22T22:32:37.454Z,23.20
2018-08-22T22:35:06.822Z,23.20
2018-08-22T22:37:36.138Z,23.10
2018-08-22T22:40:07.419Z,23.10
2018-08-22T22:42:38.712Z,23.00
2018-08-22T22:45:10.417Z,23.10
2018-08-22T22:47:42.313Z,23.00
2018-08-22T22:50:13.978Z,23.00
2018-08-22T22:52:46.551Z,22.90
2018-08-22T22:55:16.712Z,22.90
2018-08-22T22:57:47.602Z,22.80
2018-08-22T23:00:20.279Z,22.80
2018-08-22T23:02:57.129Z,22.80
2018-08-22T23:05:30.646Z,22.70
2018-08-22T23:08:04.057Z,22.60
2018-08-22T23:10:34.474Z,22.60
2018-08-22T23:13:06.518Z,22.60
2018-08-22T23:15:39.253Z,22.50
2018-08-22T23:18:09.802Z,22.50
2018-08-22T23:20:44.187Z,22.40
2018-08-22T23:23:38.943Z,22.40
2018-08-22T23:26:20.735Z,22.40
2018-08-22T23:28:50.676Z,22.30
2018-08-22T23:31:21.626Z,22.30
2018-08-22T23:33:52.027Z,22.20
2018-08-22T23:36:22.402Z,22.20
2018-08-22T23:38:51.865Z,22.10
2018-08-22T23:41:22.192Z,22.10
2018-08-22T23:43:53.532Z,22.00
2018-08-22T23:46:23.654Z,22.00
2018-08-22T23:48:57.425Z,21.90
2018-08-22T23:51:27.805Z,21.90
2018-08-22T23:54:03.780Z,21.80
2018-08-22T23:56:33.164Z,21.70
2018-08-22T23:59:02.633Z,21.70
